Terminal Aerodrome Forecast
Issued by NWS

Current Version | Previous Version | Text Only | Print | Product List | Glossary On
Versions: 1 2 3 4 5 6 7 8 9 10 11 12 13 14 15 16 17 18 19 20 21 22 23 24 25 26 27 28 29 30 31 32 33 34 35 36 37 38 39 40 41 42
000
FTUS44 KHGX 272052 AAB
TAFCXO
TAF AMD
KCXO 272052Z 2721/2818 19014KT P6SM BKN045 BKN060
     FM280300 16011KT P6SM BKN015 OVC030
     FM280600 18006KT P6SM OVC012
     FM281500 20012KT P6SM VCSH BKN025=

USA.gov is the U.S. government's official web portal to all federal, state and local government web resources and services.